• Join FlightAware (Why Join?)
  • Login
  • US Flag 
12:34PM EDT


 

Airport Tracker/Info


-or-


 

Live Flight TrackerFlight Track Log ✈ N589H ✈ 26-Feb-2014 ✈ KPIE - KMLB

Flight Track Log - Related Links

Times and Time Zones

All times are in EST time to prevent confusion due to time zone crossing. See the N589H flight status page for this flight to view local times or setup timezone preferences in your user account.

Time Position Orientation Groundspeed Altitude Reporting Facility
EST Latitude Longitude Course Direction KTS MPH feet Rate Location/Type
07:57AM 27.9000 -82.6833 180° South 161 185 600  Level Tampa TRACON
07:57AM 27.8667 -82.6833 180° South 168 193 1,600 1,620 Climbing Tampa TRACON
07:58AM 27.8500 -82.7333 249° West 205 236 3,100 1,620 Climbing Tampa TRACON
07:59AM 27.8833 -82.7667 319° Northwest 219 252 4,900 2,100 Climbing Tampa TRACON
08:00AM 27.9500 -82.7500 12° North 226 260 7,400 2,100 Climbing Tampa TRACON
08:01AM 27.9500 -82.6833 90° East 238 274 9,000 840 Climbing Tampa TRACON
08:02AM 27.9667 -82.6000 77° East 302 348 9,000  Level Tampa TRACON
08:03AM 27.9667 -82.5000 90° East 307 353 9,000  Level Tampa TRACON
08:04AM 27.9667 -82.4000 90° East 318 366 9,000  Level Tampa TRACON
08:05AM 27.9667 -82.3000 90° East 320 368 9,000  Level Tampa TRACON
08:06AM 27.9833 -82.2000 79° East 321 369 9,000  Level Tampa TRACON
08:07AM 27.9833 -82.1000 90° East 321 369 9,000  Level Tampa TRACON
08:09AM 28.0000 -81.9167 84° East 316 364 9,000  Level Orlando TRACON
08:10AM 28.0167 -81.8333 77° East 319 367 9,000  Level Orlando TRACON
08:11AM 28.0333 -81.7333 79° East 320 368 9,000  Level Orlando TRACON
08:12AM 28.0333 -81.6333 90° East 324 373 9,000  Level Orlando TRACON
08:13AM 28.0500 -81.5167 81° East 326 375 9,000 -240 Level Orlando TRACON
08:14AM 28.0667 -81.4167 79° East 324 373 8,500 -1,020 Descending Orlando TRACON
08:15AM 28.0833 -81.3333 77° East 305 351 7,000 -1,380 Descending Orlando TRACON
08:16AM 28.0833 -81.2333 90° East 297 342 5,800 -1,380 Descending Orlando TRACON
08:17AM 28.1000 -81.1333 79° East 289 333 4,200 -1,440 Descending Orlando TRACON
08:18AM 28.0833 -81.0667 106° East 258 297 3,000 -660 Descending Orlando TRACON
08:19AM 28.0833 -80.9833 90° East 252 290 3,000  Level Orlando TRACON
08:20AM 28.0667 -80.9000 103° East 282 325 3,000  Level Orlando TRACON
08:21AM 28.0500 -80.8000 101° East 285 328 3,000  Level Orlando TRACON
08:22AM 28.0333 -80.7167 103° East 280 322 3,000 -540 Level Orlando TRACON
08:23AM 28.0333 -80.6333 90° East 202 232 1,900 -840 Descending Orlando TRACON
08:24AM 28.0667 -80.6000 41° Northeast 145 167 1,200 -660 Descending Orlando TRACON
08:25AM 28.1000 -80.6000 360° North 146 168 700 -660 Descending Orlando TRACON